createdAt,value
2022-08-19T00:06:10.719Z,99908.44
2022-08-19T00:16:18.185Z,99910.13
2022-08-19T00:26:26.822Z,99887.78
2022-08-19T00:36:33.746Z,99881.75
2022-08-19T00:46:40.315Z,99863.66
2022-08-19T00:56:47.224Z,99862.59
2022-08-19T01:06:50.966Z,99855.03
2022-08-19T01:16:58.242Z,99847.34
2022-08-19T01:27:06.292Z,99844.75
2022-08-19T01:37:24.922Z,99845.72
2022-08-19T01:47:32.576Z,99848.25
2022-08-19T01:57:36.926Z,99843.19
2022-08-19T02:07:43.297Z,99849.03
2022-08-19T02:17:47.185Z,99852.44
2022-08-19T02:27:52.354Z,99873.22
2022-08-19T02:38:13.702Z,99876.47
2022-08-19T02:48:21.838Z,99879.81
2022-08-19T02:58:27.712Z,99880.78
2022-08-19T03:08:32.909Z,99878.16
2022-08-19T03:18:37.355Z,99893.84
2022-08-19T03:28:43.878Z,99883.44
2022-08-19T03:38:59.626Z,99898.22
2022-08-19T03:49:08.125Z,99900.69
2022-08-19T03:59:19.391Z,99895.66
2022-08-19T04:09:24.865Z,99913.72
2022-08-19T04:19:31.166Z,99915.47
2022-08-19T04:29:36.301Z,99919.84
2022-08-19T04:39:58.806Z,99913.06
2022-08-19T04:50:10.034Z,99931.91
2022-08-19T05:00:14.846Z,99924.06
2022-08-19T05:10:20.380Z,99922.22
2022-08-19T05:20:47.232Z,99929.09
2022-08-19T05:30:52.341Z,99931.59
2022-08-19T05:40:56.052Z,99945.91
2022-08-19T05:51:07.094Z,99954.50
2022-08-19T06:01:14.361Z,99964.69
2022-08-19T06:11:25.148Z,99964.25
2022-08-19T06:21:33.911Z,99975.66
2022-08-19T06:31:39.472Z,99990.03
2022-08-19T06:41:52.436Z,100009.59
2022-08-19T06:51:59.932Z,100007.00
2022-08-19T07:02:08.081Z,100016.69
2022-08-19T07:12:16.360Z,100007.31
2022-08-19T07:22:21.514Z,100019.91
2022-08-19T07:32:32.565Z,100025.22
2022-08-19T07:42:38.498Z,100016.25
2022-08-19T07:52:50.461Z,100016.38
2022-08-19T08:02:55.459Z,100012.28
2022-08-19T08:13:09.827Z,100017.16
2022-08-19T08:23:27.307Z,100012.75
2022-08-19T08:33:35.187Z,100014.16
2022-08-19T08:43:43.985Z,99997.53
2022-08-19T08:53:51.769Z,100005.94
2022-08-19T09:04:03.089Z,99999.03
2022-08-19T09:14:49.220Z,99992.28
2022-08-19T09:24:50.207Z,99981.94
2022-08-19T09:34:55.556Z,99979.19
2022-08-19T09:45:00.054Z,99985.97
2022-08-19T09:55:08.209Z,99963.84
2022-08-19T10:05:29.803Z,99951.69
2022-08-19T10:15:45.087Z,99972.22
2022-08-19T10:25:54.823Z,99953.97
2022-08-19T10:36:05.619Z,99952.88
2022-08-19T10:46:16.557Z,99946.53
2022-08-19T10:56:39.228Z,99931.38
2022-08-19T11:06:51.054Z,99913.88
2022-08-19T11:16:59.303Z,99909.31
2022-08-19T11:27:08.214Z,99875.25
2022-08-19T11:37:13.268Z,99873.28
2022-08-19T11:47:17.065Z,99880.31
2022-08-19T11:57:22.230Z,99870.06
2022-08-19T12:07:26.067Z,99867.97
2022-08-19T12:17:31.790Z,99866.09
2022-08-19T12:27:39.993Z,99844.63
2022-08-19T12:38:02.662Z,99834.38
2022-08-19T12:48:33.282Z,99825.75
2022-08-19T12:58:37.541Z,99813.91
2022-08-19T13:08:41.864Z,99820.44
2022-08-19T13:18:52.804Z,99832.94
2022-08-19T13:29:14.271Z,99834.09
2022-08-19T13:39:19.348Z,99853.59
2022-08-19T13:49:24.065Z,99835.84
2022-08-19T13:59:29.268Z,99848.41
2022-08-19T14:09:33.423Z,99853.53
2022-08-19T14:19:38.494Z,99863.44
2022-08-19T14:29:45.464Z,99863.69
2022-08-19T14:39:50.770Z,99821.03
2022-08-19T14:49:54.732Z,99804.03
2022-08-19T15:00:01.152Z,99800.28
2022-08-19T15:10:07.771Z,99789.41
2022-08-19T15:20:15.843Z,99791.00
2022-08-19T15:30:24.660Z,99799.38
2022-08-19T15:40:29.946Z,99797.00
2022-08-19T15:50:33.960Z,99794.56
2022-08-19T16:00:57.950Z,99800.31
2022-08-19T16:11:02.102Z,99790.06
2022-08-19T16:21:08.500Z,99793.94
2022-08-19T16:31:13.787Z,99806.63
2022-08-19T16:41:19.054Z,99809.47
2022-08-19T16:51:23.267Z,99828.81
2022-08-19T17:01:30.045Z,99833.19
2022-08-19T17:11:35.644Z,99839.72
2022-08-19T17:21:41.483Z,99832.72
2022-08-19T17:31:45.296Z,99836.44
2022-08-19T17:41:50.407Z,99835.06
2022-08-19T17:51:54.188Z,99840.59
2022-08-19T18:01:59.367Z,99858.84
2022-08-19T18:12:05.173Z,99868.94
2022-08-19T18:22:11.962Z,99884.63
2022-08-19T18:32:17.505Z,99892.69
2022-08-19T18:42:46.266Z,99909.84
2022-08-19T18:52:49.989Z,99924.94
2022-08-19T19:02:55.521Z,99926.91
2022-08-19T19:13:01.280Z,99953.63
2022-08-19T19:23:06.474Z,99969.41
2022-08-19T19:33:10.323Z,99988.28
2022-08-19T19:43:18.155Z,100000.81
2022-08-19T19:53:21.978Z,100005.50
2022-08-19T20:03:27.834Z,100025.44
2022-08-19T20:13:36.066Z,100038.16
2022-08-19T20:23:41.138Z,100040.97
2022-08-19T20:33:44.918Z,100047.69
2022-08-19T20:43:50.411Z,100040.47
2022-08-19T20:53:54.802Z,100043.13
2022-08-19T21:03:59.869Z,100050.50
2022-08-19T21:14:03.778Z,100057.25
2022-08-19T21:24:09.237Z,100059.16
2022-08-19T21:34:13.374Z,100050.75
2022-08-19T21:44:18.568Z,100074.34
2022-08-19T21:54:22.242Z,100072.06
2022-08-19T22:04:30.405Z,100072.13
2022-08-19T22:14:34.416Z,100074.09
2022-08-19T22:24:39.640Z,100070.88
2022-08-19T22:34:43.358Z,100077.88
2022-08-19T22:44:48.768Z,100076.34
2022-08-19T22:54:56.732Z,100089.34
2022-08-19T23:05:03.851Z,100091.06
2022-08-19T23:15:11.929Z,100084.00
2022-08-19T23:25:23.785Z,100092.06
2022-08-19T23:35:28.630Z,100097.22
2022-08-19T23:45:34.533Z,100094.78
2022-08-19T23:55:42.496Z,100107.72
